createdAt,value
2023-01-23T00:15:50.439Z,998
2023-01-23T00:35:04.610Z,998.1
2023-01-23T00:54:21.927Z,998
2023-01-23T01:13:35.538Z,998
2023-01-23T01:32:50.090Z,998.1
2023-01-23T01:52:03.926Z,998.4
2023-01-23T02:11:30.658Z,998.5
2023-01-23T02:30:36.372Z,998.5
2023-01-23T02:49:49.530Z,998.6
2023-01-23T03:09:02.017Z,998.6
2023-01-23T03:28:16.403Z,998.8
2023-01-23T03:47:34.358Z,998.8
2023-01-23T04:06:50.303Z,998.7
2023-01-23T04:26:05.511Z,998.6
2023-01-23T04:45:20.259Z,998.6
2023-01-23T05:04:34.124Z,998.6
2023-01-23T05:23:45.393Z,998.6
2023-01-23T05:43:01.469Z,998.8
2023-01-23T06:02:17.860Z,999
2023-01-23T06:21:33.462Z,999
2023-01-23T06:40:48.143Z,999.2
2023-01-23T07:00:03.410Z,999.7
2023-01-23T07:19:18.655Z,1000
2023-01-23T07:38:33.551Z,1000.1
2023-01-23T07:57:48.255Z,1000.2
2023-01-23T08:17:03.909Z,1000.2
2023-01-23T08:36:17.518Z,1000.4
2023-01-23T08:55:32.028Z,1000.5
2023-01-23T09:14:47.702Z,1000.5
2023-01-23T09:34:03.620Z,1000.7
2023-01-23T09:53:18.337Z,1000.7
2023-01-23T10:12:32.852Z,1000.8
2023-01-23T10:31:48.642Z,1001
2023-01-23T10:51:03.272Z,1000.9
2023-01-23T11:10:19.359Z,1000.8
2023-01-23T11:29:33.375Z,1000.7
2023-01-23T11:48:48.235Z,1000.6
2023-01-23T12:08:02.871Z,1000.3
2023-01-23T12:27:18.431Z,1000.3
2023-01-23T12:46:31.612Z,1000.3
2023-01-23T13:05:44.762Z,1000.2
2023-01-23T13:24:56.443Z,1000.4
2023-01-23T13:44:11.051Z,1000.7
2023-01-23T14:03:27.642Z,1000.7
2023-01-23T14:22:43.663Z,1000.7
2023-01-23T14:41:55.968Z,1000.6
2023-01-23T15:01:09.311Z,1000.7
2023-01-23T15:20:22.043Z,1000.8
2023-01-23T15:39:35.765Z,1000.8
2023-01-23T15:58:51.665Z,1000.7
2023-01-23T16:18:05.719Z,1000.9
2023-01-23T16:37:19.690Z,1000.8
2023-01-23T16:56:34.274Z,1000.6
2023-01-23T17:15:48.346Z,1000.6
2023-01-23T17:35:03.824Z,1000.7
2023-01-23T17:54:18.491Z,1000.8
2023-01-23T18:13:30.433Z,1000.8
2023-01-23T18:32:44.577Z,1000.7
2023-01-23T18:51:59.088Z,1000.6
2023-01-23T19:11:14.933Z,1000.7
2023-01-23T19:30:27.859Z,1000.6
2023-01-23T19:49:42.310Z,1000.9
2023-01-23T20:08:57.131Z,1001.3
2023-01-23T20:28:11.629Z,1001.3
2023-01-23T20:47:26.898Z,1001.5
2023-01-23T21:06:44.526Z,1001.4
2023-01-23T21:25:56.870Z,1001.2
2023-01-23T21:45:08.395Z,1001.2
2023-01-23T22:04:22.952Z,1001.2
2023-01-23T22:23:38.032Z,1001.2
2023-01-23T22:42:53.638Z,1001.3
2023-01-23T23:02:07.967Z,1001.3
2023-01-23T23:21:22.191Z,1001.3
2023-01-23T23:40:38.851Z,1001.3
2023-01-23T23:59:52.695Z,1001.2
